• Join FlightAware (Why Join?)
  • Login
  • US Flag 
08:38PM EDT


 

Airport Tracker/Info


-or-


 

Live Flight TrackerFlight Track Log ✈ AAY136 ✈ 24-Apr-2013 ✈ KIWA - KFAR

Flight Track Log - Related Links

Times and Time Zones

All times are in EDT time to prevent confusion due to time zone crossing. See the AAY136 flight status page for this flight to view local times or setup timezone preferences in your user account.

Time Position Orientation Groundspeed Altitude Reporting Facility
EDT Latitude Longitude Course Direction KTS MPH feet Rate Location/Type
01:29PM 33.3000 -111.6500 140° Southeast 183 211 1,700  Level Phoenix TRACON
01:30PM 33.2667 -111.6167 140° Southeast 170 196 3,500 1,560 Climbing Phoenix TRACON
01:31PM 33.2564 -111.5997 126° Southeast 177 204 3,900 1,980 Climbing Albuquerque Center
01:32PM 33.2678 -111.5328 78° East 244 281 6,500 2,640 Climbing Albuquerque Center
01:33PM 33.3558 -111.5144 10° North 269 310 9,400 2,220 Climbing Albuquerque Center
01:34PM 33.4428 -111.5375 348° North 319 367 11,200 2,100 Climbing Albuquerque Center
01:35PM 33.5397 -111.5672 346° North 355 409 13,800 2,460 Climbing Albuquerque Center
01:36PM 33.6381 -111.5983 345° North 363 418 16,400 2,400 Climbing Albuquerque Center
01:37PM 33.7386 -111.6294 346° North 372 428 18,800 2,340 Climbing Albuquerque Center
01:38PM 33.8625 -111.6689 345° North 383 441 21,300 1,980 Climbing Albuquerque Center
01:39PM 33.9703 -111.6969 348° North 397 457 23,000 1,680 Climbing Albuquerque Center
01:40PM 34.0978 -111.6983 359° North 427 491 24,800 1,500 Climbing Albuquerque Center
01:41PM 34.2019 -111.6706 12° North 446 513 26,100 1,320 Climbing Albuquerque Center
01:42PM 34.3242 -111.6219 18° North 461 531 27,600 1,380 Climbing Albuquerque Center
01:43PM 34.4711 -111.5564 20° North 467 537 29,000 960 Climbing Albuquerque Center
01:44PM 34.5831 -111.4644 34° Northeast 482 555 29,700 960 Climbing Albuquerque Center
01:45PM 34.6808 -111.3419 46° Northeast 498 573 31,000 1,200 Climbing Albuquerque Center
01:46PM 34.7703 -111.2119 50° Northeast 503 579 32,200 1,080 Climbing Albuquerque Center
01:47PM 34.8628 -111.0817 49° Northeast 506 582 33,300 1,020 Climbing Albuquerque Center
01:48PM 34.9686 -110.9731 40° Northeast 501 577 34,400 960 Climbing Albuquerque Center
01:49PM 35.1003 -110.8506 37° Northeast 501 577 35,400 660 Climbing Albuquerque Center
01:50PM 35.2083 -110.7486 38° Northeast 508 585 35,800 720 Climbing Albuquerque Center
01:51PM 35.3356 -110.6300 37° Northeast 513 590 37,000 540 Climbing Albuquerque Center
01:53PM 35.4422 -110.5297 37° Northeast 508 585 37,000  Level Albuquerque Center
01:54PM 35.5642 -110.4117 38° Northeast 501 577 37,000  Level Albuquerque Center
01:55PM 35.6697 -110.3136 37° Northeast 498 573 37,000  Level Albuquerque Center
01:56PM 35.7908 -110.1964 38° Northeast 495 570 37,000  Level Albuquerque Center
01:57PM 35.8956 -110.0967 38° Northeast 495 570 37,000  Level Albuquerque Center
01:57PM 35.9486 -110.0489 36° Northeast 494 568 37,000  Level Denver Center
01:58PM 36.0694 -109.9314 38° Northeast 494 568 37,000  Level Denver Center
01:59PM 36.1736 -109.8311 38° Northeast 494 568 37,000  Level Denver Center
02:00PM 36.2778 -109.7306 38° Northeast 493 567 37,100  Climbing Denver Center
02:01PM 36.3994 -109.6128 38° Northeast 494 568 37,000 -60 Descending Denver Center
02:03PM 36.5372 -109.4769 38° Northeast 493 567 37,000  Level Denver Center
02:04PM 36.6422 -109.3750 38° Northeast 496 571 37,000  Level Denver Center
02:05PM 36.7467 -109.2722 38° Northeast 499 574 37,000  Level Denver Center
02:06PM 36.8678 -109.1528 38° Northeast 496 571 37,000  Level Denver Center
02:07PM 36.9714 -109.0483 39° Northeast 497 572 37,000  Level Denver Center
02:08PM 37.0928 -108.9297 38° Northeast 495 570 37,000  Level Denver Center
02:09PM 37.1961 -108.8250 39° Northeast 497 572 37,000  Level Denver Center
02:10PM 37.3164 -108.7053 38° Northeast 493 567 37,000  Level Denver Center
02:11PM 37.4206 -108.6011 38° Northeast 497 572 37,000  Level Denver Center
02:12PM 37.5061 -108.5119 40° Northeast 499 574 37,000  Level Denver Center
02:13PM 37.6450 -108.3708 39° Northeast 501 577 37,100  Climbing Denver Center
02:14PM 37.7472 -108.2672 39° Northeast 494 568 37,000 -60 Descending Denver Center
02:15PM 37.8667 -108.1464 39° Northeast 490 564 37,000  Level Denver Center
02:16PM 37.9692 -108.0431 38° Northeast 491 565 37,000  Level Denver Center
02:17PM 38.0881 -107.9172 40° Northeast 493 567 37,000  Level Denver Center
02:18PM 38.1897 -107.8100 40° Northeast 495 570 37,000  Level Denver Center
02:19PM 38.3061 -107.6903 39° Northeast 490 564 37,000  Level Denver Center
02:20PM 38.4061 -107.5856 39° Northeast 489 563 37,000  Level Denver Center
02:21PM 38.5253 -107.4603 39° Northeast 492 566 37,000  Level Denver Center
02:22PM 38.6267 -107.3556 39° Northeast 492 566 37,000  Level Denver Center
02:23PM 38.7444 -107.2294 40° Northeast 494 568 37,000  Level Denver Center
02:24PM 38.8392 -107.1283 40° Northeast 496 571 37,000  Level Denver Center
02:25PM 38.9639 -106.9958 40° Northeast 498 573 37,000  Level Denver Center
02:26PM 39.0644 -106.8883 40° Northeast 495 570 37,000  Level Denver Center
02:27PM 39.1806 -106.7644 40° Northeast 490 564 37,000  Level Denver Center
02:28PM 39.2797 -106.6567 40° Northeast 489 563 37,000  Level Denver Center
02:29PM 39.3994 -106.5289 39° Northeast 497 572 37,000  Level Denver Center
02:30PM 39.4881 -106.4308 40° Northeast 495 570 37,000  Level Denver Center
02:31PM 39.6153 -106.2911 40° Northeast 500 575 37,100  Climbing Denver Center
02:32PM 39.7214 -106.1753 40° Northeast 496 571 37,000 -60 Descending Denver Center
02:33PM 39.8261 -106.0586 41° Northeast 491 565 37,000  Level Denver Center
02:35PM 39.9311 -105.9425 40° Northeast 490 564 37,000  Level Denver Center
02:36PM 40.0342 -105.8283 40° Northeast 482 555 37,000  Level Denver Center
02:37PM 40.1381 -105.7103 41° Northeast 488 562 37,000  Level Denver Center
02:38PM 40.2403 -105.5944 41° Northeast 482 555 37,100  Climbing Denver Center
02:39PM 40.3444 -105.4783 40° Northeast 484 557 37,100 -60 Level Denver Center
02:40PM 40.4636 -105.3442 41° Northeast 479 551 37,000 -60 Descending Denver Center
02:41PM 40.5650 -105.2269 41° Northeast 479 551 37,000  Level Denver Center
02:42PM 40.6667 -105.1119 41° Northeast 478 550 37,000  Level Denver Center
02:43PM 40.7683 -104.9978 40° Northeast 474 545 37,000  Level Denver Center
02:44PM 40.8700 -104.8778 42° Northeast 481 554 37,000  Level Denver Center
02:45PM 40.9725 -104.7578 41° Northeast 485 558 37,100  Climbing Denver Center
02:46PM 41.0819 -104.6314 41° Northeast 483 556 37,100 -60 Level Denver Center
02:47PM 41.1761 -104.5219 41° Northeast 473 544 37,000 -60 Descending Denver Center
02:48PM 41.2847 -104.3975 41° Northeast 461 531 37,000  Level Denver Center
02:49PM 41.3761 -104.2914 41° Northeast 457 526 37,000  Level Denver Center
02:50PM 41.4836 -104.1625 42° Northeast 464 534 37,000  Level Denver Center
02:51PM 41.5772 -104.0514 42° Northeast 470 541 37,000  Level Denver Center
02:52PM 41.6856 -103.9219 42° Northeast 469 540 37,100  Climbing Denver Center
02:53PM 41.7775 -103.8128 42° Northeast 464 534 37,000 -120 Descending Denver Center
02:54PM 41.8972 -103.6686 42° Northeast 455 524 36,900  Descending Denver Center
02:55PM 41.9881 -103.5600 42° Northeast 457 526 37,000  Climbing Denver Center
02:56PM 42.0931 -103.4331 42° Northeast 458 527 37,000  Level Denver Center
02:57PM 42.1822 -103.3225 43° Northeast 458 527 37,100  Climbing Denver Center
02:58PM 42.2853 -103.1964 42° Northeast 449 517 37,000 -60 Descending Denver Center
02:59PM 42.3733 -103.0881 42° Northeast 448 516 37,000  Level Denver Center
03:01PM 42.4764 -102.9608 42° Northeast 450 518 37,000  Level Denver Center
03:02PM 42.5656 -102.8500 42° Northeast 454 522 37,000  Level Denver Center
03:03PM 42.6700 -102.7208 42° Northeast 456 525 37,000  Level Denver Center
03:04PM 42.7589 -102.6103 42° Northeast 455 524 37,000  Level Denver Center
03:05PM 42.8456 -102.4994 43° Northeast 451 519 37,000  Level Denver Center
03:06PM 42.9506 -102.3700 42° Northeast 453 521 37,000  Level Denver Center
03:07PM 43.0361 -102.2600 43° Northeast 445 512 37,000  Level Denver Center
03:08PM 43.1392 -102.1314 42° Northeast 449 517 37,000  Level Denver Center
03:09PM 43.2256 -102.0181 44° Northeast 450 518 37,000  Level Denver Center
03:10PM 43.3286 -101.8861 43° Northeast 453 521 37,000  Level Denver Center
03:11PM 43.4261 -101.7592 43° Northeast 455 524 37,100  Climbing Denver Center
03:12PM 43.5181 -101.6394 43° Northeast 455 524 37,000 -60 Descending Denver Center
03:13PM 43.6097 -101.5214 43° Northeast 453 521 37,000  Level Denver Center
03:14PM 43.7006 -101.4022 43° Northeast 450 518 37,000  Level Denver Center
03:14PM 43.7561 -101.3306 43° Northeast 452 520 37,000  Level Minneapolis Center
03:15PM 43.8458 -101.2111 44° Northeast 451 519 37,000  Level Minneapolis Center
03:17PM 43.9369 -101.0922 43° Northeast 450 518 37,000  Level Minneapolis Center
03:18PM 44.0283 -100.9706 44° Northeast 452 520 37,000  Level Minneapolis Center
03:19PM 44.1192 -100.8489 44° Northeast 454 522 37,000  Level Minneapolis Center
03:20PM 44.2094 -100.7264 44° Northeast 454 522 37,000  Level Minneapolis Center
03:21PM 44.3019 -100.6028 44° Northeast 459 528 37,000  Level Minneapolis Center
03:22PM 44.4114 -100.4561 44° Northeast 457 526 37,000  Level Minneapolis Center
03:23PM 44.5025 -100.3328 44° Northeast 456 525 37,000  Level Minneapolis Center
03:24PM 44.5925 -100.2086 44° Northeast 456 525 37,000  Level Minneapolis Center
03:25PM 44.6828 -100.0858 44° Northeast 455 524 37,000  Level Minneapolis Center
03:26PM 44.7728 -99.9633 44° Northeast 454 522 37,000  Level Minneapolis Center
03:27PM 44.8739 -99.8231 44° Northeast 456 525 37,000  Level Minneapolis Center
03:28PM 44.9669 -99.6931 45° Northeast 451 519 37,000  Level Minneapolis Center
03:29PM 45.0553 -99.5697 45° Northeast 452 520 37,000  Level Minneapolis Center
03:30PM 45.1442 -99.4428 45° Northeast 456 525 37,000  Level Minneapolis Center
03:31PM 45.2336 -99.3158 45° Northeast 457 526 37,000  Level Minneapolis Center
03:32PM 45.3075 -99.2158 44° Northeast 460 529 37,000 -120 Level Minneapolis Center
03:33PM 45.4294 -99.0372 46° Northeast 451 519 36,800 -720 Descending Minneapolis Center
03:34PM 45.5353 -98.8858 45° Northeast 451 519 35,500 -1,680 Descending Minneapolis Center
03:35PM 45.6253 -98.7644 43° Northeast 448 516 33,400 -2,160 Descending Minneapolis Center
03:36PM 45.7083 -98.6444 45° Northeast 432 497 31,100 -2,220 Descending Minneapolis Center
03:37PM 45.7931 -98.5322 43° Northeast 420 483 28,900 -2,100 Descending Minneapolis Center
03:38PM 45.8756 -98.4217 43° Northeast 410 472 26,800 -1,980 Descending Minneapolis Center
03:39PM 45.9550 -98.3122 44° Northeast 401 461 24,900 -2,040 Descending Minneapolis Center
03:40PM 46.0469 -98.1842 44° Northeast 388 447 22,600 -1,980 Descending Minneapolis Center
03:41PM 46.1128 -98.0900 45° Northeast 381 438 20,900 -1,680 Descending Minneapolis Center
03:42PM 46.1864 -97.9872 44° Northeast 371 427 19,200 -1,620 Descending Minneapolis Center
03:43PM 46.2597 -97.8850 44° Northeast 368 423 17,600 -1,800 Descending Minneapolis Center
03:45PM 46.3458 -97.7644 44° Northeast 362 417 15,600 -1,800 Descending Minneapolis Center
03:46PM 46.4189 -97.6611 44° Northeast 360 414 13,900 -1,680 Descending Minneapolis Center
03:47PM 46.4917 -97.5589 44° Northeast 350 403 12,200 -1,620 Descending Minneapolis Center
03:48PM 46.5628 -97.4581 44° Northeast 340 391 10,600 -1,200 Descending Minneapolis Center
03:49PM 46.6225 -97.3731 44° Northeast 314 361 9,800 -1,140 Descending Minneapolis Center
03:50PM 46.6814 -97.2881 45° Northeast 285 328 8,300 -1,560 Descending Minneapolis Center
03:51PM 46.7400 -97.2044 44° Northeast 283 326 6,700 -1,620 Descending Minneapolis Center
03:52PM 46.7975 -97.1219 44° Northeast 279 321 5,100 -1,500 Descending Minneapolis Center
03:53PM 46.8531 -97.0425 44° Northeast 268 308 3,600 -1,260 Descending Minneapolis Center
03:54PM 46.9025 -96.9700 45° Northeast 263 303 2,600 -540 Descending Minneapolis Center
03:55PM 46.9469 -96.9075 44° Northeast 207 238 2,500 -180 Descending Minneapolis Center
03:56PM 46.9903 -96.8597 37° Northeast 183 211 2,300 -360 Descending Minneapolis Center
03:57PM 46.9711 -96.8156 122° Southeast 154 177 1,800 -540 Descending Minneapolis Center
03:59PM 46.9167 -96.8000 46° Northeast  Level FlightAware Approximate
04:06PM 46.9207 -96.8158 46° Northeast  Level Estimated